createdAt,value
2019-02-20T00:00:08.687Z,100756.77
2019-02-20T00:02:36.444Z,100764.33
2019-02-20T00:05:04.252Z,100763.63
2019-02-20T00:07:32.000Z,100760.41
2019-02-20T00:10:00.769Z,100761.31
2019-02-20T00:12:28.551Z,100772.52
2019-02-20T00:14:56.500Z,100765.50
2019-02-20T00:17:24.320Z,100764.84
2019-02-20T00:19:52.106Z,100770.35
2019-02-20T00:22:19.881Z,100769.37
2019-02-20T00:24:47.783Z,100777.05
2019-02-20T00:27:15.590Z,100776.36
2019-02-20T00:29:43.357Z,100781.54
2019-02-20T00:32:11.113Z,100779.55
2019-02-20T00:34:38.881Z,100784.88
2019-02-20T00:37:06.635Z,100780.25
2019-02-20T00:39:34.565Z,100785.06
2019-02-20T00:42:02.335Z,100783.55
2019-02-20T00:44:39.104Z,100780.44
2019-02-20T00:47:24.782Z,100785.73
2019-02-20T00:49:52.515Z,100784.58
2019-02-20T00:52:39.909Z,100788.63
2019-02-20T00:55:08.576Z,100793.30
2019-02-20T00:57:36.397Z,100792.81
2019-02-20T01:00:05.044Z,100793.13
2019-02-20T01:02:32.791Z,100791.30
2019-02-20T01:05:00.656Z,100790.63
2019-02-20T01:07:28.647Z,100792.98
2019-02-20T01:09:56.390Z,100803.81
2019-02-20T01:12:24.301Z,100795.31
2019-02-20T01:14:52.051Z,100794.46
2019-02-20T01:17:19.977Z,100791.48
2019-02-20T01:19:47.734Z,100783.28
2019-02-20T01:22:15.479Z,100792.31
2019-02-20T01:24:43.429Z,100790.48
2019-02-20T01:27:11.181Z,100790.31
2019-02-20T01:29:38.926Z,100787.15
2019-02-20T01:32:06.851Z,100778.78
2019-02-20T01:34:34.619Z,100791.19
2019-02-20T01:37:02.569Z,100780.00
2019-02-20T01:39:30.316Z,100782.38
2019-02-20T01:41:58.238Z,100770.89
2019-02-20T01:44:25.962Z,100777.56
2019-02-20T01:46:53.858Z,100780.25
2019-02-20T01:49:21.648Z,100777.73
2019-02-20T01:51:49.413Z,100783.73
2019-02-20T01:54:17.132Z,100779.05
2019-02-20T01:56:45.086Z,100784.39
2019-02-20T01:59:12.832Z,100778.70
2019-02-20T02:01:40.772Z,100780.53
2019-02-20T02:04:08.532Z,100781.52
2019-02-20T02:06:36.538Z,100787.25
2019-02-20T02:09:06.572Z,100787.93
2019-02-20T02:11:34.502Z,100787.09
2019-02-20T02:14:02.262Z,100781.23
2019-02-20T02:16:30.190Z,100786.07
2019-02-20T02:18:57.890Z,100784.57
2019-02-20T02:21:25.822Z,100782.08
2019-02-20T02:23:53.607Z,100784.08
2019-02-20T02:26:21.366Z,100786.25
2019-02-20T02:28:49.114Z,100782.06
2019-02-20T02:31:17.040Z,100791.94
2019-02-20T02:33:44.795Z,100788.25
2019-02-20T02:36:12.773Z,100783.58
2019-02-20T02:38:40.496Z,100783.40
2019-02-20T02:41:08.454Z,100785.73
2019-02-20T02:43:36.342Z,100792.07
2019-02-20T02:46:04.166Z,100783.72
2019-02-20T02:48:32.127Z,100793.90
2019-02-20T02:50:59.865Z,100794.24
2019-02-20T02:53:30.577Z,100796.23
2019-02-20T02:55:57.385Z,100799.05
2019-02-20T02:58:25.325Z,100796.84
2019-02-20T03:00:54.279Z,100789.84
2019-02-20T03:03:22.131Z,100789.36
2019-02-20T03:05:49.923Z,100788.69
2019-02-20T03:08:17.874Z,100788.69
2019-02-20T03:10:45.585Z,100779.63
2019-02-20T03:13:13.357Z,100781.14
2019-02-20T03:15:41.169Z,100776.88
2019-02-20T03:18:09.163Z,100780.25
2019-02-20T03:20:36.893Z,100782.75
2019-02-20T03:23:04.714Z,100785.56
2019-02-20T03:25:32.519Z,100782.58
2019-02-20T03:28:00.275Z,100785.78
2019-02-20T03:30:28.045Z,100792.59
2019-02-20T03:32:55.994Z,100795.41
2019-02-20T03:35:23.708Z,100799.11
2019-02-20T03:37:51.695Z,100803.50
2019-02-20T03:40:19.441Z,100802.16
2019-02-20T03:42:47.173Z,100808.67
2019-02-20T03:45:15.014Z,100809.83
2019-02-20T03:47:42.977Z,100806.98
2019-02-20T03:50:10.685Z,100815.14
2019-02-20T03:52:38.471Z,100822.80
2019-02-20T03:55:06.220Z,100815.45
2019-02-20T03:57:33.982Z,100812.28
2019-02-20T04:00:01.762Z,100811.26
2019-02-20T04:02:29.682Z,100812.77
2019-02-20T04:04:57.422Z,100809.12
2019-02-20T04:07:25.386Z,100810.11
2019-02-20T04:09:53.140Z,100810.78
2019-02-20T04:12:21.108Z,100813.48
2019-02-20T04:14:49.035Z,100819.01
2019-02-20T04:17:16.766Z,100828.36
2019-02-20T04:19:47.362Z,100831.17
2019-02-20T04:22:15.272Z,100824.17
2019-02-20T04:24:43.199Z,100825.30
2019-02-20T04:27:10.963Z,100831.62
2019-02-20T04:29:38.886Z,100827.79
2019-02-20T04:32:06.643Z,100836.16
2019-02-20T04:34:34.383Z,100828.59
2019-02-20T04:37:02.140Z,100828.91
2019-02-20T04:39:29.897Z,100832.55
2019-02-20T04:41:57.682Z,100830.37
2019-02-20T04:44:25.420Z,100823.19
2019-02-20T04:46:53.182Z,100830.67
2019-02-20T04:49:21.075Z,100832.14
2019-02-20T04:51:48.833Z,100823.09
2019-02-20T04:54:16.589Z,100829.47
2019-02-20T04:56:44.339Z,100827.94
2019-02-20T04:59:12.304Z,100828.74
2019-02-20T05:01:40.070Z,100825.75
2019-02-20T05:04:07.815Z,100824.90
2019-02-20T05:06:35.609Z,100823.32
2019-02-20T05:09:04.726Z,100827.37
2019-02-20T05:11:32.545Z,100831.05
2019-02-20T05:14:00.477Z,100835.78
2019-02-20T05:16:30.246Z,100837.91
2019-02-20T05:18:58.188Z,100834.02
2019-02-20T05:21:25.947Z,100832.96
2019-02-20T05:23:53.881Z,100833.41
2019-02-20T05:26:21.650Z,100836.81
2019-02-20T05:28:49.436Z,100841.50
2019-02-20T05:31:17.194Z,100843.80
2019-02-20T05:33:46.164Z,100839.55
2019-02-20T05:36:15.654Z,100838.56
2019-02-20T05:38:43.613Z,100840.37
2019-02-20T05:41:11.406Z,100833.02
2019-02-20T05:43:39.347Z,100833.89
2019-02-20T05:46:07.215Z,100823.16
2019-02-20T05:48:35.278Z,100839.05
2019-02-20T05:51:03.041Z,100836.38
2019-02-20T05:53:31.014Z,100838.61
2019-02-20T05:55:58.968Z,100849.34
2019-02-20T05:58:26.926Z,100843.01
2019-02-20T06:00:54.994Z,100845.45
2019-02-20T06:03:22.974Z,100852.00
2019-02-20T06:05:50.754Z,100857.35
2019-02-20T06:08:18.622Z,100861.69
2019-02-20T06:10:46.364Z,100865.03
2019-02-20T06:13:14.130Z,100876.54
2019-02-20T06:15:43.146Z,100876.77
2019-02-20T06:18:11.079Z,100867.87
2019-02-20T06:20:38.870Z,100873.85
2019-02-20T06:23:08.936Z,100875.84
2019-02-20T06:25:36.683Z,100879.75
2019-02-20T06:28:04.433Z,100890.09
2019-02-20T06:30:32.196Z,100887.90
2019-02-20T06:33:00.025Z,100888.39
2019-02-20T06:35:27.814Z,100892.28
2019-02-20T06:37:55.595Z,100892.88
2019-02-20T06:40:23.407Z,100897.02
2019-02-20T06:42:51.196Z,100900.05
2019-02-20T06:45:19.019Z,100902.19
2019-02-20T06:47:48.140Z,100904.56
2019-02-20T06:50:15.965Z,100910.84
2019-02-20T06:52:43.841Z,100908.34
2019-02-20T06:55:11.647Z,100908.52
2019-02-20T06:57:39.431Z,100915.52
2019-02-20T07:00:09.217Z,100918.58
2019-02-20T07:02:37.011Z,100917.78
2019-02-20T07:05:33.909Z,100927.52
2019-02-20T07:09:03.957Z,100917.23
2019-02-20T07:12:22.437Z,100918.06
2019-02-20T07:16:08.094Z,100923.07
2019-02-20T07:19:38.712Z,100924.03
2019-02-20T07:22:41.903Z,100918.30
2019-02-20T07:26:10.413Z,100933.42
2019-02-20T07:29:25.215Z,100935.08
2019-02-20T07:31:53.525Z,100934.33
2019-02-20T07:34:21.333Z,100934.91
2019-02-20T07:36:49.276Z,100944.94
2019-02-20T07:39:17.105Z,100955.00
2019-02-20T07:41:44.924Z,100955.94
2019-02-20T07:44:12.696Z,100954.96
2019-02-20T07:46:40.612Z,100965.13
2019-02-20T07:49:08.386Z,100973.53
2019-02-20T07:51:36.332Z,100975.75
2019-02-20T07:54:04.103Z,100975.03
2019-02-20T07:56:31.876Z,100977.98
2019-02-20T07:58:59.640Z,100983.30
2019-02-20T08:01:27.402Z,100990.33
2019-02-20T08:03:55.149Z,100992.25
2019-02-20T08:06:22.900Z,100995.73
2019-02-20T08:08:50.713Z,100988.22
2019-02-20T08:11:18.864Z,100998.58
2019-02-20T08:13:46.627Z,100994.72
2019-02-20T08:16:14.454Z,100998.63
2019-02-20T08:18:42.208Z,100997.28
2019-02-20T08:21:10.091Z,101001.48
2019-02-20T08:23:38.044Z,101000.72
2019-02-20T08:26:05.795Z,100999.94
2019-02-20T08:28:33.542Z,101004.75
2019-02-20T08:31:02.070Z,101012.58
2019-02-20T08:33:29.875Z,101009.05
2019-02-20T08:35:57.651Z,101004.83
2019-02-20T08:38:25.404Z,101006.41
2019-02-20T08:40:53.168Z,101017.83
2019-02-20T08:43:20.991Z,101023.83
2019-02-20T08:45:48.786Z,101014.55
2019-02-20T08:48:16.565Z,101023.75
2019-02-20T08:50:44.334Z,101022.98
2019-02-20T08:53:12.125Z,101023.45
2019-02-20T08:55:39.897Z,101018.70
2019-02-20T08:58:07.853Z,101027.30
2019-02-20T09:00:35.759Z,101017.41
2019-02-20T09:03:03.706Z,101020.47
2019-02-20T09:05:31.487Z,101028.09
2019-02-20T09:07:59.442Z,101025.20
2019-02-20T09:10:27.319Z,101030.92
2019-02-20T09:12:55.223Z,101022.77
2019-02-20T09:15:23.037Z,101029.33
2019-02-20T09:17:50.905Z,101026.96
2019-02-20T09:20:18.723Z,101027.13
2019-02-20T09:22:46.669Z,101033.98
2019-02-20T09:25:19.871Z,101033.92
2019-02-20T09:27:44.391Z,101031.19
2019-02-20T09:30:12.791Z,101026.84
2019-02-20T09:32:40.741Z,101030.70
2019-02-20T09:35:08.998Z,101032.42
2019-02-20T09:37:36.909Z,101036.48
2019-02-20T09:40:07.537Z,101035.77
2019-02-20T09:42:37.546Z,101034.83
2019-02-20T09:45:05.581Z,101039.83
2019-02-20T09:47:33.354Z,101049.23
2019-02-20T09:50:01.118Z,101051.02
2019-02-20T09:52:28.873Z,101050.59
2019-02-20T09:54:56.626Z,101054.05
2019-02-20T09:57:24.434Z,101053.84
2019-02-20T09:59:52.167Z,101052.37
2019-02-20T10:02:19.970Z,101059.97
2019-02-20T10:04:48.071Z,101050.81
2019-02-20T10:07:15.845Z,101057.87
2019-02-20T10:09:43.666Z,101066.00
2019-02-20T10:12:11.504Z,101055.17
2019-02-20T10:14:40.350Z,101063.67
2019-02-20T10:17:08.310Z,101062.98
2019-02-20T10:19:36.102Z,101069.64
2019-02-20T10:22:04.140Z,101069.62
2019-02-20T10:24:31.892Z,101073.70
2019-02-20T10:27:00.848Z,101070.38
2019-02-20T10:29:29.322Z,101065.80
2019-02-20T10:31:57.136Z,101069.55
2019-02-20T10:34:24.850Z,101067.59
2019-02-20T10:36:52.799Z,101065.58
2019-02-20T10:39:20.441Z,101068.25
2019-02-20T10:41:48.312Z,101068.66
2019-02-20T10:44:16.053Z,101068.50
2019-02-20T10:46:44.164Z,101069.39
2019-02-20T10:49:11.917Z,101068.08
2019-02-20T10:51:39.716Z,101061.49
2019-02-20T10:54:07.492Z,101063.70
2019-02-20T10:56:36.584Z,101065.23
2019-02-20T10:59:05.207Z,101069.41
2019-02-20T11:01:33.007Z,101075.05
2019-02-20T11:04:00.813Z,101067.61
2019-02-20T11:06:28.615Z,101061.44
2019-02-20T11:08:56.396Z,101058.22
2019-02-20T11:11:24.234Z,101060.67
2019-02-20T11:13:53.311Z,101061.69
2019-02-20T11:16:21.065Z,101056.16
2019-02-20T11:18:48.892Z,101055.78
2019-02-20T11:21:16.645Z,101063.58
2019-02-20T11:23:44.413Z,101068.69
2019-02-20T11:26:17.930Z,101061.48
2019-02-20T11:28:42.185Z,101060.06
2019-02-20T11:31:10.195Z,101053.54
2019-02-20T11:33:38.358Z,101049.12
2019-02-20T11:36:06.107Z,101050.36
2019-02-20T11:38:33.885Z,101044.60
2019-02-20T11:41:02.596Z,101037.84
2019-02-20T11:43:30.370Z,101040.04
2019-02-20T11:45:58.167Z,101045.83
2019-02-20T11:48:26.250Z,101040.31
2019-02-20T11:50:54.263Z,101039.50
2019-02-20T11:53:21.994Z,101020.34
2019-02-20T11:55:49.785Z,101026.84
2019-02-20T11:58:17.606Z,101025.91
2019-02-20T12:00:45.416Z,101024.61
2019-02-20T12:03:13.262Z,101021.66
2019-02-20T12:05:41.068Z,101020.06
2019-02-20T12:08:08.978Z,101027.24
2019-02-20T12:10:37.002Z,101033.98
2019-02-20T12:13:04.728Z,101039.14
2019-02-20T12:15:32.582Z,101028.22
2019-02-20T12:18:00.428Z,101026.87
2019-02-20T12:20:28.240Z,101033.23
2019-02-20T12:22:56.005Z,101034.39
2019-02-20T12:25:23.764Z,101038.67
2019-02-20T12:27:51.577Z,101031.03
2019-02-20T12:30:19.324Z,101029.17
2019-02-20T12:32:47.104Z,101029.28
2019-02-20T12:35:14.923Z,101028.34
2019-02-20T12:37:42.835Z,101032.44
2019-02-20T12:40:10.831Z,101035.31
2019-02-20T12:42:38.639Z,101038.64
2019-02-20T12:45:06.539Z,101042.48
2019-02-20T12:47:34.344Z,101042.48
2019-02-20T12:50:02.342Z,101048.36
2019-02-20T12:52:30.196Z,101044.65
2019-02-20T12:54:58.022Z,101041.70
2019-02-20T12:57:25.908Z,101047.89
2019-02-20T12:59:53.683Z,101050.84
2019-02-20T13:02:21.507Z,101055.16
2019-02-20T13:04:49.431Z,101043.45
2019-02-20T13:07:17.749Z,101040.66
2019-02-20T13:09:45.726Z,101038.03
2019-02-20T13:12:13.538Z,101045.20
2019-02-20T13:14:41.296Z,101038.54
2019-02-20T13:17:09.350Z,101036.14
2019-02-20T13:19:37.160Z,101033.69
2019-02-20T13:22:04.995Z,101031.47
2019-02-20T13:24:32.769Z,101034.57
2019-02-20T13:27:07.380Z,101032.72
2019-02-20T13:29:30.295Z,101039.64
2019-02-20T13:31:58.099Z,101033.06
2019-02-20T13:34:25.969Z,101032.72
2019-02-20T13:36:53.894Z,101033.09
2019-02-20T13:39:21.759Z,101028.95
2019-02-20T13:41:49.610Z,101024.05
2019-02-20T13:44:17.402Z,101023.19
2019-02-20T13:46:45.190Z,101028.33
2019-02-20T13:49:13.367Z,101031.64
2019-02-20T13:51:41.537Z,101027.14
2019-02-20T13:54:09.332Z,101028.27
2019-02-20T13:56:37.137Z,101025.80
2019-02-20T13:59:05.023Z,101024.56
2019-02-20T14:01:32.847Z,101018.94
2019-02-20T14:04:00.649Z,101029.39
2019-02-20T14:06:28.860Z,101032.30
2019-02-20T14:08:56.622Z,101026.16
2019-02-20T14:11:24.395Z,101018.31
2019-02-20T14:13:52.158Z,101020.23
2019-02-20T14:16:19.902Z,101025.36
2019-02-20T14:18:47.735Z,101028.41
2019-02-20T14:21:15.516Z,101023.33
2019-02-20T14:23:43.250Z,101021.91
2019-02-20T14:26:10.999Z,101017.16
2019-02-20T14:28:38.791Z,101020.77
2019-02-20T14:31:07.110Z,101009.78
2019-02-20T14:33:34.945Z,101016.29
2019-02-20T14:36:02.699Z,101020.19
2019-02-20T14:38:31.968Z,101013.83
2019-02-20T14:40:59.871Z,101019.52
2019-02-20T14:43:27.672Z,101024.87
2019-02-20T14:45:55.616Z,101030.73
2019-02-20T14:48:23.466Z,101021.73
2019-02-20T14:50:51.336Z,101031.95
2019-02-20T14:53:19.097Z,101027.50
2019-02-20T14:55:46.839Z,101032.30
2019-02-20T14:58:14.642Z,101036.61
2019-02-20T15:00:42.587Z,101033.28
2019-02-20T15:03:10.382Z,101035.30
2019-02-20T15:05:38.148Z,101038.53
2019-02-20T15:08:06.335Z,101040.79
2019-02-20T15:10:34.133Z,101039.42
2019-02-20T15:13:01.916Z,101046.02
2019-02-20T15:15:29.727Z,101047.97
2019-02-20T15:17:57.959Z,101049.98
2019-02-20T15:20:25.696Z,101053.42
2019-02-20T15:22:53.464Z,101054.09
2019-02-20T15:25:21.252Z,101050.87
2019-02-20T15:27:49.059Z,101054.45
2019-02-20T15:30:16.805Z,101054.22
2019-02-20T15:32:44.603Z,101051.09
2019-02-20T15:35:12.767Z,101048.30
2019-02-20T15:37:40.587Z,101051.13
2019-02-20T15:40:08.658Z,101055.52
2019-02-20T15:42:36.443Z,101059.03
2019-02-20T15:45:04.920Z,101053.75
2019-02-20T15:47:32.734Z,101052.79
2019-02-20T15:50:00.488Z,101050.42
2019-02-20T15:52:28.470Z,101056.63
2019-02-20T15:54:56.220Z,101053.92
2019-02-20T15:57:24.003Z,101058.47
2019-02-20T15:59:51.756Z,101058.25
2019-02-20T16:02:19.768Z,101067.86
2019-02-20T16:04:47.549Z,101065.47
2019-02-20T16:07:15.527Z,101067.64
2019-02-20T16:09:43.274Z,101072.16
2019-02-20T16:12:11.386Z,101073.77
2019-02-20T16:14:39.158Z,101077.92
2019-02-20T16:17:10.094Z,101079.84
2019-02-20T16:19:37.840Z,101077.89
2019-02-20T16:22:05.668Z,101089.01
2019-02-20T16:24:33.601Z,101087.70
2019-02-20T16:27:01.363Z,101095.09
2019-02-20T16:29:29.593Z,101095.31
2019-02-20T16:31:57.419Z,101098.27
2019-02-20T16:34:25.196Z,101103.11
2019-02-20T16:36:52.965Z,101103.38
2019-02-20T16:39:20.971Z,101097.38
2019-02-20T16:41:48.731Z,101101.06
2019-02-20T16:44:16.518Z,101103.41
2019-02-20T16:46:44.678Z,101104.66
2019-02-20T16:49:12.466Z,101108.16
2019-02-20T16:51:40.209Z,101109.65
2019-02-20T16:54:08.145Z,101118.95
2019-02-20T16:56:35.899Z,101114.38
2019-02-20T16:59:05.180Z,101122.46
2019-02-20T17:01:33.315Z,101130.05
2019-02-20T17:04:01.395Z,101129.98
2019-02-20T17:06:29.192Z,101127.09
2019-02-20T17:08:56.941Z,101127.20
2019-02-20T17:11:24.711Z,101127.85
2019-02-20T17:13:52.485Z,101137.61
2019-02-20T17:16:20.315Z,101145.70
2019-02-20T17:18:48.148Z,101141.35
2019-02-20T17:21:16.299Z,101146.66
2019-02-20T17:23:44.051Z,101144.86
2019-02-20T17:26:11.877Z,101153.02
2019-02-20T17:28:39.653Z,101149.88
2019-02-20T17:31:07.454Z,101149.34
2019-02-20T17:33:35.273Z,101148.05
2019-02-20T17:36:03.261Z,101145.95
2019-02-20T17:38:31.430Z,101150.30
2019-02-20T17:40:59.231Z,101143.51
2019-02-20T17:43:26.983Z,101139.97
2019-02-20T17:45:54.879Z,101152.13
2019-02-20T17:48:22.650Z,101154.42
2019-02-20T17:50:50.426Z,101149.54
2019-02-20T17:53:18.192Z,101159.66
2019-02-20T17:55:46.375Z,101154.81
2019-02-20T17:58:15.412Z,101166.23
2019-02-20T18:00:43.448Z,101155.46
2019-02-20T18:03:11.223Z,101155.77
2019-02-20T18:05:38.992Z,101163.34
2019-02-20T18:08:06.872Z,101169.42
2019-02-20T18:10:34.628Z,101164.44
2019-02-20T18:13:02.423Z,101168.02
2019-02-20T18:15:30.145Z,101166.34
2019-02-20T18:17:57.920Z,101170.38
2019-02-20T18:20:25.684Z,101172.37
2019-02-20T18:22:53.510Z,101171.28
2019-02-20T18:25:21.266Z,101176.22
2019-02-20T18:27:49.044Z,101170.77
2019-02-20T18:30:16.845Z,101176.53
2019-02-20T18:32:44.580Z,101178.77
2019-02-20T18:35:12.433Z,101179.05
2019-02-20T18:37:40.161Z,101187.13
2019-02-20T18:40:08.850Z,101183.65
2019-02-20T18:42:36.662Z,101191.28
2019-02-20T18:45:06.065Z,101194.50
2019-02-20T18:47:33.844Z,101186.73
2019-02-20T18:50:01.706Z,101188.47
2019-02-20T18:52:30.638Z,101190.47
2019-02-20T18:55:05.553Z,101190.58
2019-02-20T18:57:28.273Z,101196.20
2019-02-20T18:59:56.147Z,101196.20
2019-02-20T19:02:23.887Z,101198.64
2019-02-20T19:04:51.693Z,101204.22
2019-02-20T19:07:19.564Z,101198.40
2019-02-20T19:09:48.748Z,101200.23
2019-02-20T19:13:19.406Z,101201.05
2019-02-20T19:16:53.468Z,101203.07
2019-02-20T19:19:55.789Z,101201.05
2019-02-20T19:23:13.672Z,101207.06
2019-02-20T19:26:24.168Z,101204.37
2019-02-20T19:29:29.669Z,101208.95
2019-02-20T19:32:44.229Z,101213.34
2019-02-20T19:36:08.294Z,101215.33
2019-02-20T19:38:52.567Z,101214.23
2019-02-20T19:42:27.077Z,101208.47
2019-02-20T19:46:04.343Z,101214.68
2019-02-20T19:48:55.069Z,101220.58
2019-02-20T19:52:09.307Z,101224.10
2019-02-20T19:55:20.324Z,101224.31
2019-02-20T19:58:36.192Z,101222.58
2019-02-20T20:02:13.338Z,101218.72
2019-02-20T20:05:47.864Z,101215.08
2019-02-20T20:09:19.339Z,101221.42
2019-02-20T20:12:23.544Z,101216.86
2019-02-20T20:15:59.741Z,101217.97
2019-02-20T20:19:38.195Z,101221.42
2019-02-20T20:23:10.127Z,101217.89
2019-02-20T20:26:39.785Z,101223.13
2019-02-20T20:30:21.040Z,101227.41
2019-02-20T20:33:50.107Z,101234.59
2019-02-20T20:37:26.014Z,101227.59
2019-02-20T20:40:28.313Z,101220.29
2019-02-20T20:43:47.197Z,101222.71
2019-02-20T20:47:21.056Z,101228.94
2019-02-20T20:50:00.467Z,101227.17
2019-02-20T20:53:24.377Z,101224.17
2019-02-20T20:57:04.599Z,101224.36
2019-02-20T21:00:35.000Z,101215.30
2019-02-20T21:03:08.635Z,101222.94
2019-02-20T21:06:09.344Z,101219.52
2019-02-20T21:09:00.479Z,101212.59
2019-02-20T21:12:32.969Z,101215.44
2019-02-20T21:15:54.949Z,101210.63
2019-02-20T21:19:05.415Z,101217.05
2019-02-20T21:22:46.421Z,101211.61
2019-02-20T21:26:07.795Z,101210.36
2019-02-20T21:29:15.938Z,101215.55
2019-02-20T21:32:24.167Z,101215.33
2019-02-20T21:35:29.339Z,101217.39
2019-02-20T21:38:17.519Z,101214.58
2019-02-20T21:41:19.497Z,101211.33
2019-02-20T21:44:31.220Z,101213.33
2019-02-20T21:47:22.939Z,101209.37
2019-02-20T21:50:41.135Z,101212.22
2019-02-20T21:54:10.822Z,101217.18
2019-02-20T21:57:10.808Z,101215.72
2019-02-20T22:00:48.935Z,101213.14
2019-02-20T22:04:29.446Z,101216.59
2019-02-20T22:07:50.502Z,101220.80
2019-02-20T22:11:27.190Z,101222.66
2019-02-20T22:14:50.103Z,101221.02
2019-02-20T22:18:37.238Z,101221.27
2019-02-20T22:22:29.701Z,101220.95
2019-02-20T22:25:41.256Z,101226.34
2019-02-20T22:28:59.224Z,101226.16
2019-02-20T22:32:38.916Z,101218.79
2019-02-20T22:35:33.494Z,101217.84
2019-02-20T22:38:42.192Z,101224.19
2019-02-20T22:42:10.456Z,101222.69
2019-02-20T22:45:53.078Z,101222.91
2019-02-20T22:48:45.092Z,101218.94
2019-02-20T22:51:52.986Z,101225.19
2019-02-20T22:55:23.188Z,101234.45
2019-02-20T22:58:41.239Z,101232.78
2019-02-20T23:01:52.975Z,101230.61
2019-02-20T23:04:57.953Z,101223.30
2019-02-20T23:07:54.966Z,101225.86
2019-02-20T23:11:06.665Z,101225.05
2019-02-20T23:14:39.651Z,101220.84
2019-02-20T23:17:07.504Z,101226.02
2019-02-20T23:19:35.285Z,101229.19
2019-02-20T23:22:03.115Z,101230.84
2019-02-20T23:24:30.866Z,101234.19
2019-02-20T23:26:58.614Z,101238.58
2019-02-20T23:29:26.332Z,101244.98
2019-02-20T23:31:54.092Z,101242.94
2019-02-20T23:34:22.025Z,101245.35
2019-02-20T23:36:49.775Z,101249.88
2019-02-20T23:39:17.583Z,101252.05
2019-02-20T23:41:45.338Z,101256.22
2019-02-20T23:44:13.122Z,101259.76
2019-02-20T23:46:40.891Z,101264.00
2019-02-20T23:49:08.675Z,101261.85
2019-02-20T23:51:36.593Z,101267.22
2019-02-20T23:54:04.536Z,101265.70
2019-02-20T23:56:32.245Z,101266.23
2019-02-20T23:59:00.028Z,101268.42
